Time;durP1;ratioP1;P1;durP2;ratioP2;P2;SDS_P1;SDS_P2;PMS_P1;PMS_P2;Temp;Humidity;BMP_temperature;BMP_pressure;BME280_temperature;BME280_humidity;BME280_pressure;Samples;Min_cycle;Max_cycle;Signal;HPM_P1;HPM_P2
2024/01/03 11:03:40;;;;;;;9.10;3.60;;;;;;;7.87;82.26;97061.91;101925;1292;635948;-69
2024/01/03 11:06:19;;;;;;;12.20;4.50;;;;;;;7.91;82.35;97059.42;104291;1269;94352;-69
2024/01/03 11:08:53;;;;;;;9.70;4.70;;;;;;;7.96;82.34;97059.48;104605;1269;94293;-68
2024/01/03 11:11:35;;;;;;;10.50;4.70;;;;;;;8.01;82.24;97057.79;104339;1279;107305;-69
2024/01/03 11:14:18;;;;;;;13.60;5.20;;;;;;;8.05;82.33;97053.52;104746;1267;95486;-69
2024/01/03 11:16:46;;;;;;;15.30;6.20;;;;;;;8.09;82.37;97048.20;105698;1257;273867;-68
2024/01/03 11:19:14;;;;;;;15.10;4.90;;;;;;;8.13;82.35;97047.30;105144;1251;94628;-69
2024/01/03 11:21:45;;;;;;;14.90;5.20;;;;;;;8.18;82.41;97044.86;105541;1252;94315;-69
2024/01/03 11:24:19;;;;;;;11.40;4.60;;;;;;;8.24;82.32;97046.30;105431;1256;107258;-69
2024/01/03 11:26:56;;;;;;;11.30;4.30;;;;;;;8.29;82.50;97045.39;105565;1257;95219;-69
2024/01/03 11:29:42;;;;;;;14.10;5.00;;;;;;;8.36;82.46;97040.02;105303;1257;108238;-69
2024/01/03 11:32:30;;;;;;;14.20;4.80;;;;;;;8.44;82.39;97039.20;105550;1257;95275;-70
2024/01/03 11:35:08;;;;;;;10.60;4.40;;;;;;;8.55;82.54;97038.97;105415;1256;95324;-68
2024/01/03 11:37:37;;;;;;;8.60;3.70;;;;;;;8.62;82.42;97035.40;105149;1255;108596;-69
2024/01/03 11:40:08;;;;;;;11.20;4.00;;;;;;;8.68;82.37;97029.74;105044;1256;95646;-70
2024/01/03 11:42:41;;;;;;;8.60;3.60;;;;;;;8.74;82.43;97034.98;105559;1256;107687;-68
2024/01/03 11:45:15;;;;;;;10.70;4.20;;;;;;;8.79;82.21;97037.64;105551;1262;96285;-68
2024/01/03 11:47:45;;;;;;;6.70;3.10;;;;;;;8.83;82.29;97033.26;105494;1265;95252;-71
2024/01/03 11:50:15;;;;;;;8.20;3.30;;;;;;;8.87;82.30;97036.23;105484;1265;110115;-70
2024/01/03 11:52:48;;;;;;;8.30;3.50;;;;;;;8.89;82.13;97034.52;105556;1257;95271;-70
2024/01/03 11:55:17;;;;;;;5.90;2.90;;;;;;;8.93;82.13;97035.25;105698;1256;110565;-68
2024/01/03 11:57:48;;;;;;;7.00;3.40;;;;;;;8.97;82.15;97038.63;105127;1257;95335;-70
2024/01/03 12:00:22;;;;;;;8.30;3.60;;;;;;;8.99;81.96;97040.50;105578;1252;96279;-70
2024/01/03 12:02:51;;;;;;;9.60;3.60;;;;;;;9.02;82.00;97033.87;105718;1261;108447;-69
2024/01/03 12:05:21;;;;;;;10.80;3.80;;;;;;;9.05;81.96;97034.59;105488;1261;95365;-71
2024/01/03 12:07:51;;;;;;;9.30;3.60;;;;;;;9.08;82.02;97032.48;105539;1251;107703;-74
2024/01/03 12:10:23;;;;;;;8.60;3.40;;;;;;;9.12;81.83;97032.34;105818;1253;96058;-75
2024/01/03 12:12:52;;;;;;;6.50;2.70;;;;;;;9.15;81.97;97034.65;105644;1255;95355;-71
2024/01/03 12:15:27;;;;;;;11.50;3.60;;;;;;;9.16;81.89;97037.19;105573;1254;108339;-74
2024/01/03 12:18:06;;;;;;;12.50;4.00;;;;;;;9.18;81.80;97041.14;105865;1250;95249;-77
2024/01/03 12:20:34;;;;;;;8.00;3.70;;;;;;;9.18;81.80;97038.98;105731;1256;107035;-74
2024/01/03 12:23:09;;;;;;;8.10;2.70;;;;;;;9.19;81.76;97040.22;105925;1251;95268;-76
2024/01/03 12:25:39;;;;;;;7.40;3.20;;;;;;;9.21;81.79;97039.57;105978;1263;96062;-70
2024/01/03 12:28:10;;;;;;;6.80;3.00;;;;;;;9.23;81.84;97040.92;105830;1254;106839;-70
2024/01/03 12:30:38;;;;;;;7.60;3.10;;;;;;;9.25;81.65;97042.17;105685;1254;95410;-68
2024/01/03 12:33:15;;;;;;;9.70;4.00;;;;;;;9.27;81.66;97043.41;105157;1256;108250;-68
2024/01/03 12:35:48;;;;;;;7.00;3.20;;;;;;;9.29;81.62;97048.17;105787;1259;95249;-68
2024/01/03 12:38:21;;;;;;;13.30;4.60;;;;;;;9.29;81.63;97048.83;105654;1263;95338;-71
2024/01/03 12:40:49;;;;;;;11.10;4.50;;;;;;;9.30;81.53;97045.02;105794;1251;108220;-68
2024/01/03 12:43:16;;;;;;;10.20;3.80;;;;;;;9.30;81.42;97050.70;105629;1263;97254;-69
2024/01/03 12:45:48;;;;;;;13.10;4.50;;;;;;;9.30;81.40;97045.05;105673;1254;107601;-72
2024/01/03 12:48:16;;;;;;;11.80;4.40;;;;;;;9.27;81.50;97053.42;105425;1265;95424;-70
2024/01/03 12:50:46;;;;;;;14.90;5.20;;;;;;;9.26;81.47;97050.89;105631;1264;95252;-71
2024/01/03 12:53:14;;;;;;;20.10;6.40;;;;;;;9.24;81.49;97053.89;105748;1256;107242;-69
2024/01/03 12:55:42;;;;;;;18.10;6.00;;;;;;;9.23;81.32;97051.00;105676;1255;95547;-69
2024/01/03 12:58:10;;;;;;;16.50;5.80;;;;;;;9.21;81.11;97056.48;105751;1254;107517;-69
2024/01/03 13:00:38;;;;;;;20.10;7.50;;;;;;;9.18;81.12;97058.11;105952;1253;95262;-69
2024/01/03 13:03:06;;;;;;;21.60;7.60;;;;;;;9.13;80.92;97063.71;106035;1253;96106;-68
2024/01/03 13:05:35;;;;;;;21.00;8.30;;;;;;;9.08;81.09;97063.47;105106;1255;107988;-68
2024/01/03 13:08:03;;;;;;;19.40;8.20;;;;;;;9.04;81.13;97068.80;105194;1253;95240;-69
2024/01/03 13:10:32;;;;;;;17.50;6.60;;;;;;;9.01;81.14;97070.13;105111;1255;105640;-69
2024/01/03 13:13:02;;;;;;;16.80;6.60;;;;;;;8.97;81.13;97073.17;105665;1264;95198;-69
2024/01/03 13:15:31;;;;;;;18.70;6.90;;;;;;;8.95;81.31;97078.92;105787;1254;95229;-68
2024/01/03 13:18:00;;;;;;;18.20;6.60;;;;;;;8.93;81.30;97078.38;105068;1258;109084;-70
2024/01/03 13:20:29;;;;;;;22.40;7.40;;;;;;;8.92;81.37;97078.14;105699;1254;95290;-69
2024/01/03 13:22:56;;;;;;;19.20;6.30;;;;;;;8.90;81.38;97080.27;105694;1265;107774;-69
2024/01/03 13:25:24;;;;;;;15.60;5.30;;;;;;;8.87;81.31;97084.58;105692;1263;95260;-70
2024/01/03 13:27:52;;;;;;;9.10;4.40;;;;;;;8.86;81.28;97075.74;105553;1251;95211;-69
2024/01/03 13:30:20;;;;;;;12.60;4.30;;;;;;;8.84;81.27;97081.02;105548;1254;108543;-69
2024/01/03 13:32:48;;;;;;;8.60;3.90;;;;;;;8.83;81.28;97075.42;105642;1255;95442;-69
2024/01/03 13:35:18;;;;;;;10.20;4.10;;;;;;;8.82;81.13;97076.27;105715;1251;109381;-70
2024/01/03 13:37:48;;;;;;;11.50;4.40;;;;;;;8.79;81.07;97075.95;105786;1254;95319;-70
2024/01/03 13:40:17;;;;;;;10.50;4.00;;;;;;;8.77;81.08;97079.88;105549;1263;95181;-69
2024/01/03 13:42:46;;;;;;;9.70;3.50;;;;;;;8.74;81.11;97078.80;105656;1254;108520;-69
2024/01/03 13:45:14;;;;;;;9.60;3.60;;;;;;;8.72;81.00;97083.09;105484;1263;95441;-69
2024/01/03 13:47:42;;;;;;;10.80;4.00;;;;;;;8.70;81.06;97089.09;105616;1270;107612;-69
2024/01/03 13:50:10;;;;;;;9.50;3.80;;;;;;;8.69;80.97;97088.48;105658;1256;95254;-70
2024/01/03 13:52:40;;;;;;;12.90;4.50;;;;;;;8.66;80.96;97089.08;105429;1254;95166;-69
2024/01/03 13:55:08;;;;;;;14.40;5.10;;;;;;;8.64;80.93;97103.73;105655;1253;110189;-70
2024/01/03 13:57:36;;;;;;;14.30;4.80;;;;;;;8.63;80.96;97102.96;105465;1263;95770;-68
2024/01/03 14:00:09;;;;;;;20.70;8.50;;;;;;;8.61;80.92;97092.88;105681;1253;107186;-68
2024/01/03 14:02:37;;;;;;;15.90;6.40;;;;;;;8.60;80.93;97096.41;105777;1263;95263;-69
2024/01/03 14:05:06;;;;;;;21.90;8.60;;;;;;;8.58;80.82;97101.31;105540;1251;95173;-69
2024/01/03 14:07:33;;;;;;;21.70;8.60;;;;;;;8.56;80.77;97105.20;105696;1253;107741;-70
2024/01/03 14:10:01;;;;;;;25.40;10.10;;;;;;;8.52;80.82;97099.27;105802;1251;95559;-69
2024/01/03 14:12:29;;;;;;;27.30;11.10;;;;;;;8.49;80.88;97103.92;105667;1251;107395;-69
2024/01/03 14:14:57;;;;;;;25.80;10.30;;;;;;;8.45;80.86;97107.44;105520;1254;95332;-69
2024/01/03 14:17:25;;;;;;;27.20;10.80;;;;;;;8.43;80.80;97107.34;105744;1251;95248;-69
2024/01/03 14:19:53;;;;;;;20.50;7.80;;;;;;;8.42;80.82;97106.18;105776;1254;108124;-69
2024/01/03 14:22:21;;;;;;;21.70;8.90;;;;;;;8.41;80.86;97108.01;105532;1255;95473;-70
2024/01/03 14:24:49;;;;;;;21.00;9.00;;;;;;;8.41;80.87;97105.19;105611;1254;109330;-70
2024/01/03 14:27:20;;;;;;;22.10;8.10;;;;;;;8.42;80.88;97105.16;105095;1254;95242;-69
2024/01/03 14:29:48;;;;;;;18.50;7.70;;;;;;;8.41;80.94;97107.67;104956;1257;95253;-69
2024/01/03 14:32:16;;;;;;;18.80;8.10;;;;;;;8.41;80.80;97107.73;105787;1250;108132;-69
2024/01/03 14:34:44;;;;;;;22.70;9.20;;;;;;;8.41;80.89;97105.27;105646;1254;96327;-69
2024/01/03 14:37:16;;;;;;;32.80;19.20;;;;;;;8.39;80.79;97105.41;105669;1250;106691;-69
2024/01/03 14:39:47;;;;;;;27.30;12.30;;;;;;;8.38;80.67;97108.33;105777;1260;95232;-70
2024/01/03 14:42:21;;;;;;;22.30;10.10;;;;;;;8.37;80.72;97106.10;105808;1257;95294;-69
2024/01/03 14:44:49;;;;;;;21.40;8.10;;;;;;;8.37;80.72;97110.04;105867;1251;108538;-69
2024/01/03 14:47:17;;;;;;;21.00;8.30;;;;;;;8.37;80.66;97114.93;105683;1257;95191;-70
2024/01/03 14:49:45;;;;;;;23.20;9.60;;;;;;;8.37;80.70;97114.57;105879;1251;107682;-67
2024/01/03 14:52:13;;;;;;;22.00;8.40;;;;;;;8.38;80.69;97120.55;105104;1254;95233;-69
2024/01/03 14:54:42;;;;;;;21.10;8.10;;;;;;;8.37;80.60;97121.28;105650;1254;95242;-69
2024/01/03 14:57:11;;;;;;;22.70;8.30;;;;;;;8.36;80.43;97116.61;105701;1251;108613;-70
2024/01/03 14:59:40;;;;;;;21.80;9.70;;;;;;;8.36;80.70;97115.55;105834;1251;95912;-70
2024/01/03 15:02:08;;;;;;;22.30;9.60;;;;;;;8.37;80.59;97119.55;105370;1254;107652;-70
2024/01/03 15:04:37;;;;;;;25.90;11.70;;;;;;;8.35;80.47;97122.86;105104;1263;96213;-69
2024/01/03 15:07:05;;;;;;;27.10;13.00;;;;;;;8.33;80.58;97124.10;105187;1254;95274;-71
2024/01/03 15:09:33;;;;;;;26.00;13.30;;;;;;;8.30;80.42;97125.84;105315;1253;108297;-70
2024/01/03 15:12:01;;;;;;;27.80;14.00;;;;;;;8.27;80.52;97128.04;105082;1257;95281;-70
2024/01/03 15:14:29;;;;;;;36.00;19.20;;;;;;;8.26;80.49;97129.56;105167;1254;107720;-70
2024/01/03 15:16:58;;;;;;;30.80;15.70;;;;;;;8.25;80.33;97127.04;105721;1263;96608;-70
2024/01/03 15:19:26;;;;;;;32.60;16.80;;;;;;;8.25;80.37;97128.48;105773;1253;96619;-69
2024/01/03 15:22:06;;;;;;;25.30;12.20;;;;;;;8.22;80.42;97124.42;104763;1257;109894;-68
2024/01/03 15:24:35;;;;;;;21.30;10.10;;;;;;;8.20;80.46;97123.98;105037;1254;96625;-69
2024/01/03 15:27:04;;;;;;;20.50;8.00;;;;;;;8.18;80.40;97126.27;105132;1250;107103;-69
2024/01/03 15:29:32;;;;;;;18.70;7.60;;;;;;;8.16;80.31;97122.57;105325;1251;96613;-70
2024/01/03 15:32:01;;;;;;;18.60;7.50;;;;;;;8.13;80.22;97122.65;105796;1256;96597;-70
2024/01/03 15:34:29;;;;;;;21.60;8.30;;;;;;;8.12;80.27;97123.65;105201;1251;108956;-69
2024/01/03 15:36:59;;;;;;;20.30;9.40;;;;;;;8.09;80.25;97121.32;105184;1251;96613;-69
2024/01/03 15:39:27;;;;;;;22.90;10.80;;;;;;;8.06;80.33;97124.23;105745;1251;107365;-68
2024/01/03 15:41:56;;;;;;;20.00;9.00;;;;;;;8.04;80.18;97128.77;105117;1254;97511;-67
2024/01/03 15:44:24;;;;;;;21.80;8.70;;;;;;;8.04;80.27;97134.63;105071;1254;97447;-69
2024/01/03 15:46:52;;;;;;;28.80;11.50;;;;;;;8.03;80.18;97137.16;105056;1253;109977;-69
2024/01/03 15:49:24;;;;;;;27.90;12.10;;;;;;;8.02;80.16;97134.62;105189;1255;97525;-71
2024/01/03 15:51:56;;;;;;;25.60;10.30;;;;;;;7.99;80.09;97138.75;105045;1273;107499;-69
2024/01/03 15:54:24;;;;;;;26.50;9.60;;;;;;;7.96;80.16;97143.64;105334;1255;96615;-70
2024/01/03 15:57:11;;;;;;;28.40;12.00;;;;;;;7.94;80.21;97143.11;105719;1253;97228;-70
2024/01/03 15:59:38;;;;;;;26.80;10.70;;;;;;;7.93;80.06;97140.27;105151;1251;109602;-69
2024/01/03 16:02:06;;;;;;;24.00;9.50;;;;;;;7.91;80.13;97140.56;104834;1254;96582;-69
2024/01/03 16:04:35;;;;;;;28.60;12.10;;;;;;;7.89;80.08;97141.42;105097;1251;108251;-70
2024/01/03 16:07:03;;;;;;;31.20;13.10;;;;;;;7.88;80.16;97142.60;105708;1254;96705;-69
2024/01/03 16:09:34;;;;;;;30.20;13.70;;;;;;;7.87;80.15;97142.05;105599;1254;96535;-69
2024/01/03 16:12:05;;;;;;;30.90;13.20;;;;;;;7.85;80.02;97141.86;105767;1254;110586;-69
2024/01/03 16:14:36;;;;;;;27.70;12.20;;;;;;;7.83;80.10;97144.52;105171;1254;96514;-69
2024/01/03 16:17:08;;;;;;;39.00;26.50;;;;;;;7.80;79.93;97139.98;105001;1263;107645;-69
2024/01/03 16:19:36;;;;;;;33.50;17.60;;;;;;;7.77;79.99;97135.84;105106;1255;97244;-69
2024/01/03 16:22:04;;;;;;;31.00;13.80;;;;;;;7.73;79.90;97133.19;105098;1251;96596;-70
2024/01/03 16:24:32;;;;;;;27.10;12.00;;;;;;;7.70;79.94;97133.73;105722;1251;111167;-70
2024/01/03 16:27:04;;;;;;;29.80;16.20;;;;;;;7.66;79.87;97133.86;105168;1250;96512;-70
2024/01/03 16:29:34;;;;;;;26.70;13.20;;;;;;;7.62;79.96;97140.59;105880;1254;107468;-73
2024/01/03 16:32:06;;;;;;;23.60;10.70;;;;;;;7.59;79.90;97137.33;105839;1254;96638;-69
2024/01/03 16:34:35;;;;;;;25.50;12.30;;;;;;;7.56;79.86;97130.38;104950;1251;96613;-71
2024/01/03 16:37:07;;;;;;;28.90;15.90;;;;;;;7.53;79.92;97129.19;105031;1251;109986;-69
2024/01/03 16:39:36;;;;;;;21.20;9.50;;;;;;;7.51;79.84;97127.11;105135;1251;97865;-71
2024/01/03 16:42:04;;;;;;;18.10;7.70;;;;;;;7.49;79.82;97125.38;104927;1257;107755;-69
2024/01/03 16:44:33;;;;;;;20.60;9.60;;;;;;;7.47;79.82;97125.05;105085;1255;96590;-68
2024/01/03 16:47:01;;;;;;;23.10;10.90;;;;;;;7.44;79.81;97126.96;105147;1253;97833;-69
2024/01/03 16:49:29;;;;;;;20.20;8.30;;;;;;;7.43;79.72;97125.54;104934;1254;110472;-70
2024/01/03 16:51:58;;;;;;;24.40;11.30;;;;;;;7.41;79.70;97126.09;105777;1254;97109;-69
2024/01/03 16:54:27;;;;;;;24.20;9.90;;;;;;;7.38;79.67;97124.92;105124;1258;109113;-68
2024/01/03 16:56:55;;;;;;;25.00;10.40;;;;;;;7.36;79.66;97120.92;105031;1254;96584;-70
2024/01/03 16:59:24;;;;;;;22.80;9.10;;;;;;;7.32;79.50;97114.18;105108;1253;96610;-68
2024/01/03 17:01:52;;;;;;;30.40;13.70;;;;;;;7.31;79.68;97114.86;105532;1253;109125;-70
2024/01/03 17:04:24;;;;;;;36.70;17.10;;;;;;;7.27;79.70;97116.34;105829;1251;97522;-70
2024/01/03 17:06:51;;;;;;;39.90;17.20;;;;;;;7.26;79.60;97119.34;105528;1254;107284;-69
2024/01/03 17:09:19;;;;;;;24.70;9.80;;;;;;;7.24;79.66;97113.65;105527;1254;97536;-70
2024/01/03 17:11:47;;;;;;;28.50;12.20;;;;;;;7.22;79.78;97112.39;105857;1254;96605;-70
2024/01/03 17:14:16;;;;;;;24.70;10.30;;;;;;;7.20;79.56;97112.23;105700;1254;109686;-69
2024/01/03 17:16:44;;;;;;;25.70;10.60;;;;;;;7.18;79.62;97108.74;105202;1251;96638;-70
2024/01/03 17:19:12;;;;;;;21.90;9.30;;;;;;;7.17;79.57;97110.91;105773;1254;107996;-70
2024/01/03 17:21:40;;;;;;;22.20;9.30;;;;;;;7.17;79.63;97110.80;105090;1253;96606;-70
2024/01/03 17:24:09;;;;;;;22.40;9.00;;;;;;;7.15;79.44;97113.70;105154;1254;97931;-70
2024/01/03 17:26:37;;;;;;;21.00;8.00;;;;;;;7.15;79.47;97112.31;105373;1263;110485;-70
2024/01/03 17:29:06;;;;;;;21.50;8.40;;;;;;;7.16;79.54;97117.04;105777;1254;96625;-70
2024/01/03 17:31:35;;;;;;;19.70;7.60;;;;;;;7.16;79.47;97119.46;105224;1257;105846;-70
2024/01/03 17:34:04;;;;;;;24.50;9.40;;;;;;;7.15;79.61;97116.55;105202;1257;96619;-69
2024/01/03 17:36:34;;;;;;;20.90;9.00;;;;;;;7.16;79.41;97120.58;105005;1253;96558;-70
2024/01/03 17:39:02;;;;;;;20.40;7.70;;;;;;;7.16;79.39;97122.66;106182;1254;109874;-70
2024/01/03 17:41:30;;;;;;;22.60;8.30;;;;;;;7.16;79.36;97121.24;104997;1266;97925;-70
2024/01/03 17:43:59;;;;;;;22.10;8.70;;;;;;;7.15;79.36;97119.93;105761;1255;107685;-70
2024/01/03 17:46:27;;;;;;;21.40;8.40;;;;;;;7.15;79.41;97120.98;105142;1257;96696;-71
2024/01/03 17:48:55;;;;;;;22.00;9.00;;;;;;;7.14;79.35;97123.52;105611;1257;96638;-70
2024/01/03 17:51:23;;;;;;;25.10;10.60;;;;;;;7.13;79.21;97122.23;105733;1253;108452;-69
2024/01/03 17:53:54;;;;;;;24.50;10.20;;;;;;;7.11;79.17;97117.80;105124;1253;96581;-69
2024/01/03 17:56:25;;;;;;;26.40;11.50;;;;;;;7.10;79.07;97121.92;105171;1257;107286;-69
2024/01/03 17:58:56;;;;;;;27.30;11.00;;;;;;;7.09;78.74;97116.77;104975;1257;97943;-71
2024/01/03 18:01:24;;;;;;;28.60;12.10;;;;;;;7.08;78.87;97115.10;106004;1253;96643;-70
2024/01/03 18:03:53;;;;;;;27.20;10.40;;;;;;;7.04;78.90;97119.54;105066;1251;110431;-70
2024/01/03 18:06:21;;;;;;;25.30;9.60;;;;;;;6.99;78.95;97120.13;106014;1254;96702;-69
2024/01/03 18:08:49;;;;;;;25.10;9.70;;;;;;;6.94;78.88;97119.70;105002;1254;107908;-69
2024/01/03 18:11:18;;;;;;;25.30;9.40;;;;;;;6.90;79.01;97120.53;105060;1264;97172;-70
2024/01/03 18:13:46;;;;;;;27.30;11.00;;;;;;;6.87;78.98;97121.39;105245;1254;96551;-70
2024/01/03 18:16:22;;;;;;;27.20;10.90;;;;;;;6.84;78.92;97121.07;105815;1254;108666;-70
2024/01/03 18:18:51;;;;;;;23.50;9.60;;;;;;;6.82;79.04;97117.75;105693;1251;97450;-69
2024/01/03 18:21:20;;;;;;;23.80;10.40;;;;;;;6.80;79.01;97124.92;105534;1254;106424;-70
2024/01/03 18:23:48;;;;;;;28.30;11.70;;;;;;;6.78;79.01;97124.95;105082;1254;96622;-69
2024/01/03 18:26:16;;;;;;;28.50;11.90;;;;;;;6.78;79.10;97125.14;105182;1255;96628;-68
2024/01/03 18:28:47;;;;;;;27.00;11.80;;;;;;;6.80;79.09;97123.55;105024;1251;109439;-70
2024/01/03 18:31:17;;;;;;;31.30;12.90;;;;;;;6.83;79.18;97128.41;105203;1251;96635;-70
2024/01/03 18:33:45;;;;;;;24.90;11.10;;;;;;;6.86;79.18;97130.09;105118;1254;107664;-69
2024/01/03 18:36:14;;;;;;;28.00;10.50;;;;;;;6.88;79.23;97129.70;105169;1253;96609;-70
2024/01/03 18:38:42;;;;;;;22.20;9.30;;;;;;;6.91;79.16;97128.42;105789;1254;96593;-68
2024/01/03 18:41:10;;;;;;;25.10;10.50;;;;;;;6.93;79.14;97130.38;105674;1251;109411;-70
2024/01/03 18:43:38;;;;;;;22.60;9.40;;;;;;;6.94;79.20;97129.40;104896;1251;96585;-70
2024/01/03 18:46:05;;;;;;;21.20;9.60;;;;;;;6.94;79.08;97133.38;105526;1251;107239;-70
2024/01/03 18:48:33;;;;;;;23.60;10.60;;;;;;;6.94;79.03;97132.21;105176;1254;96707;-70
2024/01/03 18:51:02;;;;;;;22.40;9.40;;;;;;;6.93;78.95;97133.85;105200;1254;96656;-70
2024/01/03 18:53:33;;;;;;;25.60;11.40;;;;;;;6.92;78.77;97127.30;105603;1249;110068;-72
2024/01/03 18:56:01;;;;;;;26.80;12.60;;;;;;;6.89;78.84;97123.27;105603;1251;97420;-71
2024/01/03 18:58:29;;;;;;;21.90;10.00;;;;;;;6.89;78.86;97128.80;105659;1251;107724;-70
2024/01/03 19:00:58;;;;;;;23.30;9.70;;;;;;;6.89;79.04;97127.17;105786;1254;96747;-71
2024/01/03 19:03:27;;;;;;;20.90;8.30;;;;;;;6.90;78.95;97126.90;105686;1254;96699;-71
2024/01/03 19:05:55;;;;;;;26.00;11.40;;;;;;;6.91;79.01;97127.49;105864;1252;109896;-72
2024/01/03 19:08:27;;;;;;;23.80;9.50;;;;;;;6.93;79.01;97129.12;105252;1253;96804;-70
2024/01/03 19:10:55;;;;;;;23.20;8.90;;;;;;;6.93;79.02;97126.77;105415;1255;110593;-71
2024/01/03 19:13:23;;;;;;;22.20;8.20;;;;;;;6.94;78.88;97130.95;105922;1256;96684;-70
2024/01/03 19:15:51;;;;;;;22.80;9.50;;;;;;;6.95;79.01;97132.20;105825;1254;96568;-71
2024/01/03 19:18:19;;;;;;;23.30;10.40;;;;;;;6.97;78.94;97129.66;105398;1253;109972;-69
2024/01/03 19:20:48;;;;;;;22.00;9.00;;;;;;;6.97;78.91;97128.88;105354;1254;96993;-71
2024/01/03 19:23:15;;;;;;;23.10;10.00;;;;;;;6.97;78.99;97127.86;105797;1254;107667;-72
2024/01/03 19:25:43;;;;;;;24.90;10.30;;;;;;;6.98;78.97;97129.02;105878;1253;97826;-72
2024/01/03 19:28:11;;;;;;;25.90;10.30;;;;;;;6.98;78.94;97134.84;105882;1253;97539;-72
2024/01/03 19:30:40;;;;;;;28.50;12.20;;;;;;;6.98;78.97;97134.66;105884;1254;110440;-70
2024/01/03 19:33:08;;;;;;;34.90;15.00;;;;;;;6.99;79.00;97138.25;105707;1253;96702;-70
2024/01/03 19:35:36;;;;;;;35.20;13.70;;;;;;;7.00;79.03;97136.19;105683;1255;107644;-71
2024/01/03 19:38:04;;;;;;;27.00;10.60;;;;;;;7.02;79.08;97138.70;105690;1255;97508;-71
2024/01/03 19:40:32;;;;;;;28.00;10.80;;;;;;;7.04;79.16;97139.38;105844;1251;97833;-73
2024/01/03 19:43:00;;;;;;;28.70;11.40;;;;;;;7.06;79.16;97141.70;105536;1253;108810;-72
2024/01/03 19:45:28;;;;;;;23.70;10.00;;;;;;;7.08;79.11;97141.70;105698;1250;96609;-72
2024/01/03 19:47:56;;;;;;;25.70;10.50;;;;;;;7.09;79.10;97140.54;104948;1263;108054;-72
2024/01/03 19:50:24;;;;;;;26.20;10.80;;;;;;;7.10;79.17;97130.94;105796;1265;97528;-72
2024/01/03 19:52:53;;;;;;;29.40;12.00;;;;;;;7.11;79.20;97131.73;105485;1255;96589;-71
2024/01/03 19:55:21;;;;;;;27.60;11.40;;;;;;;7.11;79.19;97132.80;105710;1264;108901;-72
2024/01/03 19:57:48;;;;;;;29.10;12.30;;;;;;;7.12;79.18;97139.05;105720;1251;96629;-72
2024/01/03 20:00:16;;;;;;;30.10;13.40;;;;;;;7.13;79.20;97143.40;105392;1255;107063;-71
2024/01/03 20:02:45;;;;;;;30.10;14.40;;;;;;;7.13;79.18;97154.84;105708;1254;96602;-71
2024/01/03 20:05:13;;;;;;;36.30;16.60;;;;;;;7.13;79.20;97159.39;104948;1254;96522;-72
2024/01/03 20:07:41;;;;;;;31.80;16.10;;;;;;;7.13;79.23;97152.13;105433;1253;110259;-71
2024/01/03 20:10:10;;;;;;;28.80;12.30;;;;;;;7.13;79.26;97152.14;105491;1257;97553;-70
2024/01/03 20:12:38;;;;;;;20.70;8.30;;;;;;;7.13;79.20;97154.66;105495;1257;106592;-72
2024/01/03 20:15:10;;;;;;;18.50;6.70;;;;;;;7.11;79.30;97152.91;105261;1257;96677;-72
2024/01/03 20:17:40;;;;;;;23.10;10.50;;;;;;;7.10;79.29;97144.48;105449;1257;96677;-71
2024/01/03 20:20:09;;;;;;;26.20;12.20;;;;;;;7.10;79.33;97146.64;105831;1253;109779;-74
2024/01/03 20:22:39;;;;;;;26.70;12.20;;;;;;;7.09;79.20;97141.92;105699;1250;96622;-72
2024/01/03 20:25:08;;;;;;;25.50;12.00;;;;;;;7.10;79.46;97125.15;105545;1263;107625;-71
2024/01/03 20:27:42;;;;;;;24.20;10.50;;;;;;;7.10;79.41;97133.74;105630;1254;96600;-70
2024/01/03 20:30:12;;;;;;;32.00;14.30;;;;;;;7.11;79.32;97156.27;105591;1250;97166;-72
2024/01/03 20:32:41;;;;;;;30.20;14.90;;;;;;;7.10;79.27;97166.77;105769;1250;109969;-70
2024/01/03 20:35:11;;;;;;;31.80;15.50;;;;;;;7.07;79.29;97163.45;105105;1250;96513;-72
2024/01/03 20:37:40;;;;;;;25.20;10.50;;;;;;;7.05;79.44;97160.09;106667;1251;107834;-71
2024/01/03 20:40:11;;;;;;;34.00;15.80;;;;;;;7.01;79.40;97152.36;108661;1251;96581;-71
2024/01/03 20:42:41;;;;;;;30.70;15.20;;;;;;;6.99;79.33;97151.42;105562;1264;96643;-72
2024/01/03 20:45:09;;;;;;;27.90;12.50;;;;;;;7.00;79.43;97145.55;106411;1250;110651;-70
2024/01/03 20:47:38;;;;;;;24.30;10.20;;;;;;;7.01;79.47;97156.27;105632;1253;96603;-72
2024/01/03 20:50:07;;;;;;;25.30;12.20;;;;;;;7.00;79.58;97154.52;105626;1257;107828;-72
2024/01/03 20:52:35;;;;;;;31.00;13.50;;;;;;;6.98;79.45;97155.80;105096;1253;97908;-71
2024/01/03 20:55:04;;;;;;;24.40;11.00;;;;;;;6.96;79.47;97142.89;105877;1253;96635;-71
2024/01/03 20:57:31;;;;;;;24.20;10.90;;;;;;;6.95;79.57;97137.02;105254;1250;108923;-72
2024/01/03 20:59:59;;;;;;;25.50;11.50;;;;;;;6.93;79.62;97132.08;105702;1253;96536;-72
2024/01/03 21:02:27;;;;;;;29.00;13.50;;;;;;;6.93;79.57;97126.64;106885;1250;107330;-71
2024/01/03 21:04:55;;;;;;;26.40;13.00;;;;;;;6.93;79.66;97122.05;104735;1254;96592;-71
2024/01/03 21:07:23;;;;;;;24.30;10.10;;;;;;;6.91;79.69;97120.64;105917;1253;98015;-71
2024/01/03 21:09:51;;;;;;;26.60;11.90;;;;;;;6.90;79.66;97124.92;107981;1250;107825;-70
2024/01/03 21:12:19;;;;;;;31.30;14.70;;;;;;;6.90;79.64;97121.64;105411;1253;96551;-71
2024/01/03 21:14:46;;;;;;;27.70;12.30;;;;;;;6.92;79.60;97122.37;104964;1254;107909;-70
2024/01/03 21:17:14;;;;;;;30.60;13.30;;;;;;;6.93;79.68;97122.05;105990;1254;96608;-73
2024/01/03 21:19:42;;;;;;;29.60;12.70;;;;;;;6.94;79.67;97117.88;105656;1251;96824;-73
2024/01/03 21:22:12;;;;;;;29.40;13.00;;;;;;;6.94;79.65;97117.84;105549;1254;109936;-71
2024/01/03 21:24:41;;;;;;;29.10;12.60;;;;;;;6.96;79.83;97111.37;105611;1256;96800;-74
2024/01/03 21:27:25;;;;;;;26.80;12.20;;;;;;;6.96;79.46;97111.70;105266;1257;108146;-72
2024/01/03 21:30:14;;;;;;;26.60;11.00;;;;;;;6.94;79.60;97107.67;104788;1254;96596;-72
2024/01/03 21:32:42;;;;;;;28.60;12.20;;;;;;;6.93;79.72;97118.36;105714;1250;97553;-71
2024/01/03 21:35:10;;;;;;;29.50;11.20;;;;;;;6.92;79.70;97114.96;105800;1254;108603;-72
2024/01/03 21:37:38;;;;;;;27.30;11.50;;;;;;;6.92;79.63;97114.77;104824;1255;96616;-69
2024/01/03 21:40:07;;;;;;;23.30;9.10;;;;;;;6.92;79.62;97110.84;104847;1253;108328;-71
2024/01/03 21:42:35;;;;;;;23.30;10.40;;;;;;;6.93;79.59;97108.80;105128;1251;96629;-72
2024/01/03 21:45:03;;;;;;;24.00;10.50;;;;;;;6.93;79.73;97116.60;105718;1251;97840;-72
2024/01/03 21:47:34;;;;;;;25.90;11.40;;;;;;;6.91;79.67;97112.34;105753;1251;109825;-72
2024/01/03 21:50:02;;;;;;;25.90;11.10;;;;;;;6.89;79.64;97109.95;105920;1251;96512;-71
2024/01/03 21:52:30;;;;;;;23.60;10.70;;;;;;;6.88;79.66;97106.45;105645;1251;107589;-71
2024/01/03 21:54:58;;;;;;;27.20;11.80;;;;;;;6.88;79.72;97102.80;105025;1254;96628;-71
2024/01/03 21:57:26;;;;;;;27.60;11.20;;;;;;;6.86;79.62;97092.56;105751;1251;97547;-72
2024/01/03 21:59:57;;;;;;;25.10;11.30;;;;;;;6.86;79.70;97090.93;105922;1250;109851;-72
2024/01/03 22:02:25;;;;;;;28.80;11.60;;;;;;;6.87;79.71;97091.55;105764;1251;96561;-71
2024/01/03 22:04:53;;;;;;;23.40;10.20;;;;;;;6.87;79.65;97095.64;105564;1251;108246;-72
2024/01/03 22:07:21;;;;;;;24.50;10.10;;;;;;;6.88;79.67;97097.48;105435;1254;96616;-71
2024/01/03 22:09:48;;;;;;;42.20;17.20;;;;;;;6.87;79.65;97097.02;105707;1254;96577;-70
2024/01/03 22:12:16;;;;;;;157.70;54.10;;;;;;;6.86;79.59;97092.89;105473;1254;109563;-72
2024/01/03 22:14:45;;;;;;;183.40;55.20;;;;;;;6.82;79.65;97096.95;105597;1257;97547;-72
2024/01/03 22:17:14;;;;;;;168.60;53.40;;;;;;;6.79;79.69;97101.64;105853;1255;107648;-72
2024/01/03 22:19:42;;;;;;;101.80;36.10;;;;;;;6.78;79.72;97104.02;105663;1254;96721;-70
2024/01/03 22:22:10;;;;;;;59.60;21.80;;;;;;;6.77;79.79;97099.65;105171;1251;97840;-71
2024/01/03 22:24:39;;;;;;;51.90;20.40;;;;;;;6.77;79.70;97094.02;105555;1251;109910;-72
2024/01/03 22:27:07;;;;;;;43.70;16.30;;;;;;;6.78;79.79;97092.15;105696;1251;97556;-71
2024/01/03 22:29:35;;;;;;;41.60;16.70;;;;;;;6.76;79.68;97088.44;106147;1250;105870;-71
2024/01/03 22:32:03;;;;;;;40.30;17.20;;;;;;;6.75;79.70;97087.19;105583;1253;97412;-71